sensor_id;sensor_type;location;lat;lon;timestamp;temperature;humidity
2497;DHT22;1259;48.306;14.374;2022-10-22T00:00:43;11.90;99.90
2497;DHT22;1259;48.306;14.374;2022-10-22T00:03:10;12.00;99.90
2497;DHT22;1259;48.306;14.374;2022-10-22T00:05:37;12.00;99.90
2497;DHT22;1259;48.306;14.374;2022-10-22T00:08:04;12.00;99.90
2497;DHT22;1259;48.306;14.374;2022-10-22T00:10:33;12.10;99.90
2497;DHT22;1259;48.306;14.374;2022-10-22T00:12:59;12.10;99.90
2497;DHT22;1259;48.306;14.374;2022-10-22T00:15:26;12.10;99.90
2497;DHT22;1259;48.306;14.374;2022-10-22T00:17:53;12.20;99.90
2497;DHT22;1259;48.306;14.374;2022-10-22T00:20:20;12.20;99.90
2497;DHT22;1259;48.306;14.374;2022-10-22T00:22:47;12.30;99.90
2497;DHT22;1259;48.306;14.374;2022-10-22T00:25:14;12.30;99.90
2497;DHT22;1259;48.306;14.374;2022-10-22T00:27:43;12.40;99.90
2497;DHT22;1259;48.306;14.374;2022-10-22T00:30:10;12.40;99.90
2497;DHT22;1259;48.306;14.374;2022-10-22T00:32:37;12.40;99.90
2497;DHT22;1259;48.306;14.374;2022-10-22T00:35:06;12.40;99.90
2497;DHT22;1259;48.306;14.374;2022-10-22T00:37:33;12.50;99.90
2497;DHT22;1259;48.306;14.374;2022-10-22T00:40:00;12.50;99.90
2497;DHT22;1259;48.306;14.374;2022-10-22T00:42:28;12.50;99.90
2497;DHT22;1259;48.306;14.374;2022-10-22T00:45:15;12.50;99.90
2497;DHT22;1259;48.306;14.374;2022-10-22T00:47:47;12.60;99.90
2497;DHT22;1259;48.306;14.374;2022-10-22T00:50:18;12.60;99.90
2497;DHT22;1259;48.306;14.374;2022-10-22T00:52:47;12.60;99.90
2497;DHT22;1259;48.306;14.374;2022-10-22T00:55:15;12.60;99.90
2497;DHT22;1259;48.306;14.374;2022-10-22T00:57:43;12.70;99.90
2497;DHT22;1259;48.306;14.374;2022-10-22T01:00:12;12.70;99.90
2497;DHT22;1259;48.306;14.374;2022-10-22T01:02:39;12.80;99.90
2497;DHT22;1259;48.306;14.374;2022-10-22T01:05:07;12.80;99.90
2497;DHT22;1259;48.306;14.374;2022-10-22T01:07:46;12.90;99.90
2497;DHT22;1259;48.306;14.374;2022-10-22T01:10:24;12.80;99.90
2497;DHT22;1259;48.306;14.374;2022-10-22T01:12:59;12.80;99.90
2497;DHT22;1259;48.306;14.374;2022-10-22T01:15:35;12.70;99.90
2497;DHT22;1259;48.306;14.374;2022-10-22T01:18:06;12.60;99.90
2497;DHT22;1259;48.306;14.374;2022-10-22T01:20:45;12.60;99.90
2497;DHT22;1259;48.306;14.374;2022-10-22T01:23:23;12.60;99.90
2497;DHT22;1259;48.306;14.374;2022-10-22T01:25:59;12.40;99.90
2497;DHT22;1259;48.306;14.374;2022-10-22T01:28:52;12.30;99.90
2497;DHT22;1259;48.306;14.374;2022-10-22T01:31:22;12.30;99.90
2497;DHT22;1259;48.306;14.374;2022-10-22T01:33:52;12.40;99.90
2497;DHT22;1259;48.306;14.374;2022-10-22T01:36:20;12.50;99.90
2497;DHT22;1259;48.306;14.374;2022-10-22T01:38:49;12.60;99.90
2497;DHT22;1259;48.306;14.374;2022-10-22T01:41:17;12.40;99.90
2497;DHT22;1259;48.306;14.374;2022-10-22T01:43:45;12.20;99.90
2497;DHT22;1259;48.306;14.374;2022-10-22T01:46:13;12.00;99.90
2497;DHT22;1259;48.306;14.374;2022-10-22T01:48:54;12.00;99.90
2497;DHT22;1259;48.306;14.374;2022-10-22T01:51:33;12.10;99.90
2497;DHT22;1259;48.306;14.374;2022-10-22T01:54:14;12.20;99.90
2497;DHT22;1259;48.306;14.374;2022-10-22T01:56:51;12.30;99.90
2497;DHT22;1259;48.306;14.374;2022-10-22T01:59:28;12.30;99.90
2497;DHT22;1259;48.306;14.374;2022-10-22T02:02:04;12.30;99.90
2497;DHT22;1259;48.306;14.374;2022-10-22T02:04:37;12.30;99.90
2497;DHT22;1259;48.306;14.374;2022-10-22T02:07:09;12.30;99.90
2497;DHT22;1259;48.306;14.374;2022-10-22T02:09:38;12.30;99.90
2497;DHT22;1259;48.306;14.374;2022-10-22T02:12:07;12.20;99.90
2497;DHT22;1259;48.306;14.374;2022-10-22T02:14:39;12.20;99.90
2497;DHT22;1259;48.306;14.374;2022-10-22T02:17:12;12.20;99.90
2497;DHT22;1259;48.306;14.374;2022-10-22T02:19:43;12.20;99.90
2497;DHT22;1259;48.306;14.374;2022-10-22T02:22:13;12.20;99.90
2497;DHT22;1259;48.306;14.374;2022-10-22T02:24:40;12.10;99.90
2497;DHT22;1259;48.306;14.374;2022-10-22T02:27:14;12.10;99.90
2497;DHT22;1259;48.306;14.374;2022-10-22T02:29:51;11.90;99.90
2497;DHT22;1259;48.306;14.374;2022-10-22T02:32:25;11.70;99.90
2497;DHT22;1259;48.306;14.374;2022-10-22T02:34:53;11.70;99.90
2497;DHT22;1259;48.306;14.374;2022-10-22T02:37:21;11.80;99.90
2497;DHT22;1259;48.306;14.374;2022-10-22T02:39:50;11.90;99.90
2497;DHT22;1259;48.306;14.374;2022-10-22T02:42:17;11.90;99.90
2497;DHT22;1259;48.306;14.374;2022-10-22T02:44:46;11.90;99.90
2497;DHT22;1259;48.306;14.374;2022-10-22T02:47:13;11.90;99.90
2497;DHT22;1259;48.306;14.374;2022-10-22T02:49:40;11.80;99.90
2497;DHT22;1259;48.306;14.374;2022-10-22T02:52:06;11.80;99.90
2497;DHT22;1259;48.306;14.374;2022-10-22T02:54:33;11.50;99.90
2497;DHT22;1259;48.306;14.374;2022-10-22T02:57:00;11.30;99.90
2497;DHT22;1259;48.306;14.374;2022-10-22T02:59:27;11.10;99.90
2497;DHT22;1259;48.306;14.374;2022-10-22T03:01:56;11.00;99.90
2497;DHT22;1259;48.306;14.374;2022-10-22T03:04:22;11.00;99.90
2497;DHT22;1259;48.306;14.374;2022-10-22T03:06:49;10.80;99.90
2497;DHT22;1259;48.306;14.374;2022-10-22T03:09:16;10.90;99.90
2497;DHT22;1259;48.306;14.374;2022-10-22T03:11:43;10.90;99.90
2497;DHT22;1259;48.306;14.374;2022-10-22T03:14:10;10.80;99.90
2497;DHT22;1259;48.306;14.374;2022-10-22T03:16:37;10.80;99.90
2497;DHT22;1259;48.306;14.374;2022-10-22T03:19:05;10.80;99.90
2497;DHT22;1259;48.306;14.374;2022-10-22T03:21:36;10.80;99.90
2497;DHT22;1259;48.306;14.374;2022-10-22T03:24:06;10.80;99.90
2497;DHT22;1259;48.306;14.374;2022-10-22T03:26:34;10.80;99.90
2497;DHT22;1259;48.306;14.374;2022-10-22T03:29:02;10.80;99.90
2497;DHT22;1259;48.306;14.374;2022-10-22T03:31:29;10.80;99.90
2497;DHT22;1259;48.306;14.374;2022-10-22T03:33:56;10.70;99.90
2497;DHT22;1259;48.306;14.374;2022-10-22T03:36:24;10.60;99.90
2497;DHT22;1259;48.306;14.374;2022-10-22T03:38:51;10.60;99.90
2497;DHT22;1259;48.306;14.374;2022-10-22T03:41:19;10.60;99.90
2497;DHT22;1259;48.306;14.374;2022-10-22T03:43:46;10.60;99.90
2497;DHT22;1259;48.306;14.374;2022-10-22T03:46:16;10.80;99.90
2497;DHT22;1259;48.306;14.374;2022-10-22T03:48:43;10.80;99.90
2497;DHT22;1259;48.306;14.374;2022-10-22T03:51:09;10.80;99.90
2497;DHT22;1259;48.306;14.374;2022-10-22T03:53:38;10.80;99.90
2497;DHT22;1259;48.306;14.374;2022-10-22T03:56:07;10.80;99.90
2497;DHT22;1259;48.306;14.374;2022-10-22T03:58:35;10.90;99.90
2497;DHT22;1259;48.306;14.374;2022-10-22T04:01:04;10.90;99.90
2497;DHT22;1259;48.306;14.374;2022-10-22T04:03:31;10.90;99.90
2497;DHT22;1259;48.306;14.374;2022-10-22T04:06:00;10.60;99.90
2497;DHT22;1259;48.306;14.374;2022-10-22T04:08:28;10.60;99.90
2497;DHT22;1259;48.306;14.374;2022-10-22T04:10:56;10.60;99.90
2497;DHT22;1259;48.306;14.374;2022-10-22T04:13:23;10.60;99.90
2497;DHT22;1259;48.306;14.374;2022-10-22T04:15:50;10.50;99.90
2497;DHT22;1259;48.306;14.374;2022-10-22T04:18:17;10.50;99.90
2497;DHT22;1259;48.306;14.374;2022-10-22T04:20:44;10.50;99.90
2497;DHT22;1259;48.306;14.374;2022-10-22T04:23:11;10.40;99.90
2497;DHT22;1259;48.306;14.374;2022-10-22T04:25:39;10.40;99.90
2497;DHT22;1259;48.306;14.374;2022-10-22T04:28:08;10.40;99.90
2497;DHT22;1259;48.306;14.374;2022-10-22T04:30:35;10.40;99.90
2497;DHT22;1259;48.306;14.374;2022-10-22T04:33:02;10.40;99.90
2497;DHT22;1259;48.306;14.374;2022-10-22T04:35:29;10.40;99.90
2497;DHT22;1259;48.306;14.374;2022-10-22T04:37:56;10.40;99.90
2497;DHT22;1259;48.306;14.374;2022-10-22T04:40:23;10.40;99.90
2497;DHT22;1259;48.306;14.374;2022-10-22T04:42:50;10.40;99.90
2497;DHT22;1259;48.306;14.374;2022-10-22T04:45:18;10.40;99.90
2497;DHT22;1259;48.306;14.374;2022-10-22T04:47:45;10.40;99.90
2497;DHT22;1259;48.306;14.374;2022-10-22T04:50:12;10.40;99.90
2497;DHT22;1259;48.306;14.374;2022-10-22T04:52:39;10.50;99.90
2497;DHT22;1259;48.306;14.374;2022-10-22T04:55:06;10.60;99.90
2497;DHT22;1259;48.306;14.374;2022-10-22T04:57:33;10.60;99.90
2497;DHT22;1259;48.306;14.374;2022-10-22T05:00:00;10.50;99.90
2497;DHT22;1259;48.306;14.374;2022-10-22T05:02:28;10.60;99.90
2497;DHT22;1259;48.306;14.374;2022-10-22T05:04:55;10.50;99.90
2497;DHT22;1259;48.306;14.374;2022-10-22T05:07:22;10.40;99.90
2497;DHT22;1259;48.306;14.374;2022-10-22T05:09:49;10.40;99.90
2497;DHT22;1259;48.306;14.374;2022-10-22T05:12:16;10.40;99.90
2497;DHT22;1259;48.306;14.374;2022-10-22T05:14:43;10.40;99.90
2497;DHT22;1259;48.306;14.374;2022-10-22T05:17:10;10.40;99.90
2497;DHT22;1259;48.306;14.374;2022-10-22T05:19:38;10.40;99.90
2497;DHT22;1259;48.306;14.374;2022-10-22T05:22:05;10.40;99.90
2497;DHT22;1259;48.306;14.374;2022-10-22T05:24:33;10.40;99.90
2497;DHT22;1259;48.306;14.374;2022-10-22T05:27:01;10.40;99.90
2497;DHT22;1259;48.306;14.374;2022-10-22T05:29:28;10.50;99.90
2497;DHT22;1259;48.306;14.374;2022-10-22T05:31:55;10.60;99.90
2497;DHT22;1259;48.306;14.374;2022-10-22T05:34:22;10.70;99.90
2497;DHT22;1259;48.306;14.374;2022-10-22T05:36:50;10.80;99.90
2497;DHT22;1259;48.306;14.374;2022-10-22T05:39:17;10.80;99.90
2497;DHT22;1259;48.306;14.374;2022-10-22T05:41:44;11.00;99.90
2497;DHT22;1259;48.306;14.374;2022-10-22T05:44:11;11.00;99.90
2497;DHT22;1259;48.306;14.374;2022-10-22T05:46:39;11.10;99.90
2497;DHT22;1259;48.306;14.374;2022-10-22T05:49:11;11.20;99.90
2497;DHT22;1259;48.306;14.374;2022-10-22T05:51:38;11.30;99.90
2497;DHT22;1259;48.306;14.374;2022-10-22T05:54:07;11.30;99.90
2497;DHT22;1259;48.306;14.374;2022-10-22T05:56:36;11.40;99.90
2497;DHT22;1259;48.306;14.374;2022-10-22T05:59:03;11.50;99.90
2497;DHT22;1259;48.306;14.374;2022-10-22T06:01:32;11.50;99.90
2497;DHT22;1259;48.306;14.374;2022-10-22T06:04:03;11.50;99.90
2497;DHT22;1259;48.306;14.374;2022-10-22T06:06:32;11.60;99.90
2497;DHT22;1259;48.306;14.374;2022-10-22T06:09:02;11.50;99.90
2497;DHT22;1259;48.306;14.374;2022-10-22T06:11:32;11.50;99.90
2497;DHT22;1259;48.306;14.374;2022-10-22T06:13:59;11.50;99.90
2497;DHT22;1259;48.306;14.374;2022-10-22T06:16:28;11.60;99.90
2497;DHT22;1259;48.306;14.374;2022-10-22T06:18:55;11.40;99.90
2497;DHT22;1259;48.306;14.374;2022-10-22T06:21:24;11.30;99.90
2497;DHT22;1259;48.306;14.374;2022-10-22T06:23:50;11.30;99.90
2497;DHT22;1259;48.306;14.374;2022-10-22T06:26:17;11.20;99.90
2497;DHT22;1259;48.306;14.374;2022-10-22T06:28:45;11.00;99.90
2497;DHT22;1259;48.306;14.374;2022-10-22T06:31:13;10.90;99.90
2497;DHT22;1259;48.306;14.374;2022-10-22T06:33:40;10.90;99.90
2497;DHT22;1259;48.306;14.374;2022-10-22T06:36:10;10.70;99.90
2497;DHT22;1259;48.306;14.374;2022-10-22T06:38:37;10.50;99.90
2497;DHT22;1259;48.306;14.374;2022-10-22T06:41:06;10.50;99.90
2497;DHT22;1259;48.306;14.374;2022-10-22T06:43:33;10.60;99.90
2497;DHT22;1259;48.306;14.374;2022-10-22T06:46:03;10.50;99.90
2497;DHT22;1259;48.306;14.374;2022-10-22T06:48:32;10.50;99.90
2497;DHT22;1259;48.306;14.374;2022-10-22T06:51:00;10.50;99.90
2497;DHT22;1259;48.306;14.374;2022-10-22T06:53:28;10.50;99.90
2497;DHT22;1259;48.306;14.374;2022-10-22T06:55:55;10.50;99.90
2497;DHT22;1259;48.306;14.374;2022-10-22T06:58:22;10.50;99.90
2497;DHT22;1259;48.306;14.374;2022-10-22T07:00:49;10.60;99.90
2497;DHT22;1259;48.306;14.374;2022-10-22T07:03:17;10.70;99.90
2497;DHT22;1259;48.306;14.374;2022-10-22T07:05:44;10.70;99.90
2497;DHT22;1259;48.306;14.374;2022-10-22T07:08:11;10.80;99.90
2497;DHT22;1259;48.306;14.374;2022-10-22T07:10:38;10.90;99.90
2497;DHT22;1259;48.306;14.374;2022-10-22T07:13:05;11.00;99.90
2497;DHT22;1259;48.306;14.374;2022-10-22T07:15:32;11.10;99.90
2497;DHT22;1259;48.306;14.374;2022-10-22T07:17:59;11.10;99.90
2497;DHT22;1259;48.306;14.374;2022-10-22T07:20:30;11.20;99.90
2497;DHT22;1259;48.306;14.374;2022-10-22T07:22:57;11.30;99.90
2497;DHT22;1259;48.306;14.374;2022-10-22T07:25:24;11.30;99.90
2497;DHT22;1259;48.306;14.374;2022-10-22T07:27:51;11.40;99.90
2497;DHT22;1259;48.306;14.374;2022-10-22T07:30:18;11.50;99.90
2497;DHT22;1259;48.306;14.374;2022-10-22T07:32:44;11.60;99.90
2497;DHT22;1259;48.306;14.374;2022-10-22T07:35:11;11.60;99.90
2497;DHT22;1259;48.306;14.374;2022-10-22T07:37:40;11.70;99.90
2497;DHT22;1259;48.306;14.374;2022-10-22T07:40:08;11.80;99.90
2497;DHT22;1259;48.306;14.374;2022-10-22T07:42:35;11.90;99.90
2497;DHT22;1259;48.306;14.374;2022-10-22T07:45:02;11.90;99.90
2497;DHT22;1259;48.306;14.374;2022-10-22T07:47:28;11.90;99.90
2497;DHT22;1259;48.306;14.374;2022-10-22T07:49:55;12.00;99.90
2497;DHT22;1259;48.306;14.374;2022-10-22T07:52:22;11.90;99.90
2497;DHT22;1259;48.306;14.374;2022-10-22T07:54:50;11.90;99.90
2497;DHT22;1259;48.306;14.374;2022-10-22T07:57:17;11.90;99.90
2497;DHT22;1259;48.306;14.374;2022-10-22T07:59:44;11.80;99.90
2497;DHT22;1259;48.306;14.374;2022-10-22T08:02:11;11.90;99.90
2497;DHT22;1259;48.306;14.374;2022-10-22T08:04:38;12.00;99.90
2497;DHT22;1259;48.306;14.374;2022-10-22T08:07:05;12.00;99.90
2497;DHT22;1259;48.306;14.374;2022-10-22T08:09:32;12.10;99.90
2497;DHT22;1259;48.306;14.374;2022-10-22T08:12:00;12.10;99.90
2497;DHT22;1259;48.306;14.374;2022-10-22T08:14:27;12.10;99.90
2497;DHT22;1259;48.306;14.374;2022-10-22T08:16:54;12.10;99.90
2497;DHT22;1259;48.306;14.374;2022-10-22T08:19:21;12.20;99.90
2497;DHT22;1259;48.306;14.374;2022-10-22T08:21:48;12.20;99.90
2497;DHT22;1259;48.306;14.374;2022-10-22T08:24:15;12.20;99.90
2497;DHT22;1259;48.306;14.374;2022-10-22T08:26:42;12.30;99.90
2497;DHT22;1259;48.306;14.374;2022-10-22T08:29:12;12.30;99.90
2497;DHT22;1259;48.306;14.374;2022-10-22T08:31:40;12.30;99.90
2497;DHT22;1259;48.306;14.374;2022-10-22T08:34:06;12.30;99.90
2497;DHT22;1259;48.306;14.374;2022-10-22T08:36:33;12.30;99.90
2497;DHT22;1259;48.306;14.374;2022-10-22T08:39:00;12.20;99.90
2497;DHT22;1259;48.306;14.374;2022-10-22T08:41:27;12.30;99.90
2497;DHT22;1259;48.306;14.374;2022-10-22T08:44:21;12.30;99.90
2497;DHT22;1259;48.306;14.374;2022-10-22T08:47:13;12.40;99.90
2497;DHT22;1259;48.306;14.374;2022-10-22T08:49:45;12.40;99.90
2497;DHT22;1259;48.306;14.374;2022-10-22T08:52:14;12.40;99.90
2497;DHT22;1259;48.306;14.374;2022-10-22T08:54:49;12.30;99.90
2497;DHT22;1259;48.306;14.374;2022-10-22T08:57:39;12.40;99.90
2497;DHT22;1259;48.306;14.374;2022-10-22T09:00:14;12.40;99.90
2497;DHT22;1259;48.306;14.374;2022-10-22T09:02:50;12.30;99.90
2497;DHT22;1259;48.306;14.374;2022-10-22T09:05:30;12.50;99.90
2497;DHT22;1259;48.306;14.374;2022-10-22T09:07:59;12.40;99.90
2497;DHT22;1259;48.306;14.374;2022-10-22T09:10:29;12.40;99.90
2497;DHT22;1259;48.306;14.374;2022-10-22T09:12:58;12.30;99.90
2497;DHT22;1259;48.306;14.374;2022-10-22T09:15:29;12.40;99.90
2497;DHT22;1259;48.306;14.374;2022-10-22T09:18:09;12.40;99.90
2497;DHT22;1259;48.306;14.374;2022-10-22T09:20:46;12.50;99.90
2497;DHT22;1259;48.306;14.374;2022-10-22T09:23:23;12.50;99.90
2497;DHT22;1259;48.306;14.374;2022-10-22T09:25:53;12.50;99.90
2497;DHT22;1259;48.306;14.374;2022-10-22T09:28:21;12.60;99.90
2497;DHT22;1259;48.306;14.374;2022-10-22T09:30:50;12.60;99.90
2497;DHT22;1259;48.306;14.374;2022-10-22T09:33:20;12.50;99.90
2497;DHT22;1259;48.306;14.374;2022-10-22T09:35:51;12.60;99.90
2497;DHT22;1259;48.306;14.374;2022-10-22T09:38:20;12.60;99.90
2497;DHT22;1259;48.306;14.374;2022-10-22T09:40:49;12.70;99.90
2497;DHT22;1259;48.306;14.374;2022-10-22T09:43:16;12.70;99.90
2497;DHT22;1259;48.306;14.374;2022-10-22T09:45:45;12.80;99.90
2497;DHT22;1259;48.306;14.374;2022-10-22T09:48:19;12.70;99.90
2497;DHT22;1259;48.306;14.374;2022-10-22T09:50:56;12.70;99.90
2497;DHT22;1259;48.306;14.374;2022-10-22T09:53:26;12.80;99.90
2497;DHT22;1259;48.306;14.374;2022-10-22T09:55:57;12.70;99.90
2497;DHT22;1259;48.306;14.374;2022-10-22T09:58:24;12.70;99.90
2497;DHT22;1259;48.306;14.374;2022-10-22T10:00:54;12.70;99.90
2497;DHT22;1259;48.306;14.374;2022-10-22T10:03:26;12.70;99.90
2497;DHT22;1259;48.306;14.374;2022-10-22T10:05:56;12.80;99.90
2497;DHT22;1259;48.306;14.374;2022-10-22T10:08:23;12.80;99.90
2497;DHT22;1259;48.306;14.374;2022-10-22T10:10:52;12.80;99.90
2497;DHT22;1259;48.306;14.374;2022-10-22T10:16:30;12.80;99.90
2497;DHT22;1259;48.306;14.374;2022-10-22T10:19:23;12.90;99.90
2497;DHT22;1259;48.306;14.374;2022-10-22T10:22:00;12.90;99.90
2497;DHT22;1259;48.306;14.374;2022-10-22T10:24:44;12.90;99.90
2497;DHT22;1259;48.306;14.374;2022-10-22T10:27:20;12.90;99.90
2497;DHT22;1259;48.306;14.374;2022-10-22T10:29:55;12.80;99.90
2497;DHT22;1259;48.306;14.374;2022-10-22T10:32:33;12.90;99.90
2497;DHT22;1259;48.306;14.374;2022-10-22T10:35:15;12.90;99.90
2497;DHT22;1259;48.306;14.374;2022-10-22T10:37:59;12.90;99.90
2497;DHT22;1259;48.306;14.374;2022-10-22T10:40:34;12.90;99.90
2497;DHT22;1259;48.306;14.374;2022-10-22T10:43:08;12.90;99.90
2497;DHT22;1259;48.306;14.374;2022-10-22T10:45:41;12.90;99.90
2497;DHT22;1259;48.306;14.374;2022-10-22T10:48:40;12.90;99.90
2497;DHT22;1259;48.306;14.374;2022-10-22T10:51:22;12.90;99.90
2497;DHT22;1259;48.306;14.374;2022-10-22T10:54:03;13.00;99.90
2497;DHT22;1259;48.306;14.374;2022-10-22T10:56:39;13.00;99.90
2497;DHT22;1259;48.306;14.374;2022-10-22T10:59:15;13.00;99.90
2497;DHT22;1259;48.306;14.374;2022-10-22T11:01:54;13.10;99.90
2497;DHT22;1259;48.306;14.374;2022-10-22T11:04:40;13.10;99.90
2497;DHT22;1259;48.306;14.374;2022-10-22T11:07:15;13.10;99.90
2497;DHT22;1259;48.306;14.374;2022-10-22T11:09:46;13.10;99.90
2497;DHT22;1259;48.306;14.374;2022-10-22T11:12:19;13.10;99.90
2497;DHT22;1259;48.306;14.374;2022-10-22T11:14:54;13.10;99.90
2497;DHT22;1259;48.306;14.374;2022-10-22T11:17:24;13.10;99.90
2497;DHT22;1259;48.306;14.374;2022-10-22T11:19:58;13.10;99.90
2497;DHT22;1259;48.306;14.374;2022-10-22T11:22:32;13.00;99.90
2497;DHT22;1259;48.306;14.374;2022-10-22T11:25:03;13.10;99.90
2497;DHT22;1259;48.306;14.374;2022-10-22T11:27:36;13.10;99.90
2497;DHT22;1259;48.306;14.374;2022-10-22T11:30:10;13.10;99.90
2497;DHT22;1259;48.306;14.374;2022-10-22T11:32:38;13.10;99.90
2497;DHT22;1259;48.306;14.374;2022-10-22T11:35:11;13.10;99.90
2497;DHT22;1259;48.306;14.374;2022-10-22T11:37:42;13.10;99.90
2497;DHT22;1259;48.306;14.374;2022-10-22T11:40:15;13.10;99.90
2497;DHT22;1259;48.306;14.374;2022-10-22T11:42:45;13.10;99.90
2497;DHT22;1259;48.306;14.374;2022-10-22T11:45:29;13.20;99.90
2497;DHT22;1259;48.306;14.374;2022-10-22T11:48:03;13.20;99.90
2497;DHT22;1259;48.306;14.374;2022-10-22T11:50:45;13.20;99.90
2497;DHT22;1259;48.306;14.374;2022-10-22T11:53:20;13.30;99.90
2497;DHT22;1259;48.306;14.374;2022-10-22T11:55:52;13.30;99.90
2497;DHT22;1259;48.306;14.374;2022-10-22T11:58:27;13.30;99.90
2497;DHT22;1259;48.306;14.374;2022-10-22T12:00:55;13.40;99.90
2497;DHT22;1259;48.306;14.374;2022-10-22T12:03:37;13.30;99.90
2497;DHT22;1259;48.306;14.374;2022-10-22T12:06:17;13.30;99.90
2497;DHT22;1259;48.306;14.374;2022-10-22T12:08:51;13.40;99.90
2497;DHT22;1259;48.306;14.374;2022-10-22T12:11:21;13.40;99.90
2497;DHT22;1259;48.306;14.374;2022-10-22T12:14:15;13.40;99.90
2497;DHT22;1259;48.306;14.374;2022-10-22T12:16:45;13.50;99.90
2497;DHT22;1259;48.306;14.374;2022-10-22T12:19:20;13.50;99.90
2497;DHT22;1259;48.306;14.374;2022-10-22T12:21:52;13.50;99.90
2497;DHT22;1259;48.306;14.374;2022-10-22T12:24:22;13.50;99.90
2497;DHT22;1259;48.306;14.374;2022-10-22T12:26:50;13.50;99.90
2497;DHT22;1259;48.306;14.374;2022-10-22T12:29:19;13.60;99.90
2497;DHT22;1259;48.306;14.374;2022-10-22T12:31:47;13.60;99.90
2497;DHT22;1259;48.306;14.374;2022-10-22T12:34:17;13.60;99.90
2497;DHT22;1259;48.306;14.374;2022-10-22T12:36:46;13.70;99.90
2497;DHT22;1259;48.306;14.374;2022-10-22T12:39:15;13.60;99.90
2497;DHT22;1259;48.306;14.374;2022-10-22T12:41:45;13.70;99.90
2497;DHT22;1259;48.306;14.374;2022-10-22T12:44:13;13.70;99.90
2497;DHT22;1259;48.306;14.374;2022-10-22T12:46:41;13.80;99.90
2497;DHT22;1259;48.306;14.374;2022-10-22T12:49:14;13.80;99.90
2497;DHT22;1259;48.306;14.374;2022-10-22T12:51:43;13.80;99.90
2497;DHT22;1259;48.306;14.374;2022-10-22T12:54:21;13.80;99.90
2497;DHT22;1259;48.306;14.374;2022-10-22T12:56:50;13.90;99.90
2497;DHT22;1259;48.306;14.374;2022-10-22T12:59:21;13.90;99.90
2497;DHT22;1259;48.306;14.374;2022-10-22T13:01:49;14.10;99.90
2497;DHT22;1259;48.306;14.374;2022-10-22T13:04:21;14.10;99.90
2497;DHT22;1259;48.306;14.374;2022-10-22T13:07:05;14.10;99.90
2497;DHT22;1259;48.306;14.374;2022-10-22T13:09:41;14.10;99.90
2497;DHT22;1259;48.306;14.374;2022-10-22T13:12:11;14.00;99.90
2497;DHT22;1259;48.306;14.374;2022-10-22T13:14:42;14.10;99.90
2497;DHT22;1259;48.306;14.374;2022-10-22T13:17:11;14.00;99.90
2497;DHT22;1259;48.306;14.374;2022-10-22T13:19:44;14.00;99.90
2497;DHT22;1259;48.306;14.374;2022-10-22T13:22:31;14.00;99.90
2497;DHT22;1259;48.306;14.374;2022-10-22T13:25:04;14.00;99.90
2497;DHT22;1259;48.306;14.374;2022-10-22T13:27:46;14.00;99.90
2497;DHT22;1259;48.306;14.374;2022-10-22T13:30:18;14.00;99.90
2497;DHT22;1259;48.306;14.374;2022-10-22T13:32:49;13.90;99.90
2497;DHT22;1259;48.306;14.374;2022-10-22T13:35:19;13.90;99.90
2497;DHT22;1259;48.306;14.374;2022-10-22T13:37:47;13.90;99.90
2497;DHT22;1259;48.306;14.374;2022-10-22T13:40:14;13.90;99.90
2497;DHT22;1259;48.306;14.374;2022-10-22T13:42:41;14.00;99.90
2497;DHT22;1259;48.306;14.374;2022-10-22T13:45:10;14.00;99.90
2497;DHT22;1259;48.306;14.374;2022-10-22T13:47:37;14.00;99.90
2497;DHT22;1259;48.306;14.374;2022-10-22T13:50:11;14.00;99.90
2497;DHT22;1259;48.306;14.374;2022-10-22T13:52:40;14.00;99.90
2497;DHT22;1259;48.306;14.374;2022-10-22T13:55:18;14.00;99.90
2497;DHT22;1259;48.306;14.374;2022-10-22T13:57:46;14.00;99.90
2497;DHT22;1259;48.306;14.374;2022-10-22T14:00:18;14.00;99.90
2497;DHT22;1259;48.306;14.374;2022-10-22T14:02:47;14.10;99.90
2497;DHT22;1259;48.306;14.374;2022-10-22T14:05:16;14.10;99.90
2497;DHT22;1259;48.306;14.374;2022-10-22T14:07:44;14.00;99.90
2497;DHT22;1259;48.306;14.374;2022-10-22T14:10:16;14.00;99.90
2497;DHT22;1259;48.306;14.374;2022-10-22T14:12:44;14.00;99.90
2497;DHT22;1259;48.306;14.374;2022-10-22T14:15:12;14.00;99.90
2497;DHT22;1259;48.306;14.374;2022-10-22T14:17:42;14.00;99.90
2497;DHT22;1259;48.306;14.374;2022-10-22T14:20:16;14.00;99.90
2497;DHT22;1259;48.306;14.374;2022-10-22T14:22:44;14.00;99.90
2497;DHT22;1259;48.306;14.374;2022-10-22T14:25:14;13.90;99.90
2497;DHT22;1259;48.306;14.374;2022-10-22T14:27:41;14.00;99.90
2497;DHT22;1259;48.306;14.374;2022-10-22T14:30:12;14.00;99.90
2497;DHT22;1259;48.306;14.374;2022-10-22T14:32:39;14.00;99.90
2497;DHT22;1259;48.306;14.374;2022-10-22T14:35:11;14.00;99.90
2497;DHT22;1259;48.306;14.374;2022-10-22T14:37:38;14.00;99.90
2497;DHT22;1259;48.306;14.374;2022-10-22T14:40:07;14.00;99.90
2497;DHT22;1259;48.306;14.374;2022-10-22T14:42:37;13.90;99.90
2497;DHT22;1259;48.306;14.374;2022-10-22T14:45:08;13.90;99.90
2497;DHT22;1259;48.306;14.374;2022-10-22T14:47:36;13.80;99.90
2497;DHT22;1259;48.306;14.374;2022-10-22T14:50:04;13.80;99.90
2497;DHT22;1259;48.306;14.374;2022-10-22T14:52:32;13.80;99.90
2497;DHT22;1259;48.306;14.374;2022-10-22T14:54:59;13.80;99.90
2497;DHT22;1259;48.306;14.374;2022-10-22T14:57:26;13.80;99.90
2497;DHT22;1259;48.306;14.374;2022-10-22T14:59:53;13.80;99.90
2497;DHT22;1259;48.306;14.374;2022-10-22T15:02:20;13.80;99.90
2497;DHT22;1259;48.306;14.374;2022-10-22T15:04:48;13.80;99.90
2497;DHT22;1259;48.306;14.374;2022-10-22T15:07:15;13.70;99.90
2497;DHT22;1259;48.306;14.374;2022-10-22T15:09:43;13.70;99.90
2497;DHT22;1259;48.306;14.374;2022-10-22T15:12:10;13.70;99.90
2497;DHT22;1259;48.306;14.374;2022-10-22T15:14:37;13.60;99.90
2497;DHT22;1259;48.306;14.374;2022-10-22T15:17:04;13.60;99.90
2497;DHT22;1259;48.306;14.374;2022-10-22T15:19:30;13.60;99.90
2497;DHT22;1259;48.306;14.374;2022-10-22T15:21:57;13.70;99.90
2497;DHT22;1259;48.306;14.374;2022-10-22T15:24:24;13.60;99.90
2497;DHT22;1259;48.306;14.374;2022-10-22T15:26:53;13.50;99.90
2497;DHT22;1259;48.306;14.374;2022-10-22T15:29:20;13.50;99.90
2497;DHT22;1259;48.306;14.374;2022-10-22T15:31:48;13.40;99.90
2497;DHT22;1259;48.306;14.374;2022-10-22T15:34:23;13.40;99.90
2497;DHT22;1259;48.306;14.374;2022-10-22T15:36:51;13.40;99.90
2497;DHT22;1259;48.306;14.374;2022-10-22T15:39:19;13.50;99.90
2497;DHT22;1259;48.306;14.374;2022-10-22T15:41:47;13.50;99.90
2497;DHT22;1259;48.306;14.374;2022-10-22T15:44:17;13.50;99.90
2497;DHT22;1259;48.306;14.374;2022-10-22T15:46:44;13.50;99.90
2497;DHT22;1259;48.306;14.374;2022-10-22T15:49:12;13.50;99.90
2497;DHT22;1259;48.306;14.374;2022-10-22T15:51:39;13.40;99.90
2497;DHT22;1259;48.306;14.374;2022-10-22T15:54:06;13.40;99.90
2497;DHT22;1259;48.306;14.374;2022-10-22T15:56:35;13.40;99.90
2497;DHT22;1259;48.306;14.374;2022-10-22T15:59:02;13.40;99.90
2497;DHT22;1259;48.306;14.374;2022-10-22T16:01:32;13.40;99.90
2497;DHT22;1259;48.306;14.374;2022-10-22T16:04:00;13.50;99.90
2497;DHT22;1259;48.306;14.374;2022-10-22T16:06:29;13.50;99.90